Flying Cat 3 — SX6671 — position and weather

sailwx.info

Track history (hours):
 
Tides and Currents Weather Stations Pressure Air Temp Water Temp Dewpoint Dewpoint Depression Visibility Wind Speed Wind Dir Waves Ship Positions

Flying Cat 3

Last reported at 2017-Oct-03 06:20 UTC. Time now 2017-Nov-18 23:41 UTC.
Position N 37°57' E 023°38'.
Warning: this ship's position is 46 days out of date.

Length 48 m; draft 1.5 m.

Type: High speed craft. MMSI: 239552000.

Date/timePositionNaut miles runAvg speedWind from/ knotsBaromVisibWave heightAir tempDewpointWater temp
2017-Oct-03 06:20N 37°57' E 023°38'0 0.0
2017-Oct-03 06:00N 37°57' E 023°38'0 0.0
2017-Oct-03 05:30N 37°57' E 023°38'0 0.0
2017-Oct-02 13:16N 37°57' E 023°38'0 0.0
2017-Oct-02 13:00N 37°57' E 023°38'0 0.0
2017-Oct-02 12:30N 37°57' E 023°38'0 0.0
2017-Oct-02 12:00N 37°57' E 023°38'0 0.0
2017-Oct-02 11:30N 37°57' E 023°38'0 0.0
2017-Oct-02 11:00N 37°57' E 023°38'0 0.0
2017-Oct-02 10:30N 37°57' E 023°38'0 0.0
2017-Oct-02 10:00N 37°57' E 023°38'0 0.0
2017-Oct-02 09:30N 37°57' E 023°38'0 0.4
2017-Oct-02 09:00N 37°57' E 023°39'0 0.0
2017-Oct-02 08:30N 37°57' E 023°39'0 0.0
2017-Oct-02 08:00N 37°57' E 023°39'0 0.0
2017-Oct-02 07:30N 37°57' E 023°39'0 0.0
2017-Oct-02 07:00N 37°57' E 023°39'0 0.0
2017-Oct-02 06:30N 37°57' E 023°39'0 0.0
2017-Oct-02 06:00N 37°57' E 023°39'0 0.0
2017-Oct-02 05:30N 37°57' E 023°39'0 0.0
2017-Oct-02 05:00N 37°57' E 023°39'0 0.0
2017-Oct-02 04:30N 37°57' E 023°39'0 0.0
2017-Oct-02 04:00N 37°57' E 023°39'0 0.0
2017-Oct-02 03:30N 37°57' E 023°39'0 0.0
2017-Oct-02 03:00N 37°57' E 023°39'0 0.0
2017-Oct-02 02:30N 37°57' E 023°39'0 0.0
2017-Oct-02 02:00N 37°57' E 023°39'0 0.0
2017-Oct-02 01:30N 37°57' E 023°39'0 0.0
2017-Oct-02 01:00N 37°57' E 023°39'0 0.0
2017-Oct-02 00:30N 37°57' E 023°39'0 0.0
2017-Oct-02 00:00N 37°57' E 023°39'0 0.0
2017-Oct-01 23:30N 37°57' E 023°39'0 0.0
2017-Oct-01 23:00N 37°57' E 023°39'0 0.0
2017-Oct-01 22:30N 37°57' E 023°39'0 0.0
2017-Oct-01 22:00N 37°57' E 023°39'0 0.0
2017-Oct-01 21:30N 37°57' E 023°39'0 0.0
2017-Oct-01 21:00N 37°57' E 023°39'0 0.0
2017-Oct-01 20:30N 37°57' E 023°39'0 0.0
2017-Oct-01 20:00N 37°57' E 023°39'0 0.0
2017-Oct-01 19:30N 37°57' E 023°39'0 0.0
2017-Oct-01 19:00N 37°57' E 023°39'3 6.0
2017-Oct-01 18:30N 37°54' E 023°36'11 3.1
2017-Oct-01 14:50N 37°43' E 023°33'1235.9
2017-Oct-01 14:31N 37°54' E 023°37'3 5.7
2017-Oct-01 14:00N 37°57' E 023°39'714.9
2017-Oct-01 13:31N 37°50' E 023°35'6 1.6
2017-Oct-01 09:30N 37°44' E 023°33'1427.3
2017-Oct-01 09:01N 37°57' E 023°39'0 0.0
2017-Oct-01 08:30N 37°57' E 023°39'0 0.0
2017-Oct-01 08:00N 37°57' E 023°39'0 0.0
2017-Oct-01 07:30N 37°57' E 023°39'0 0.0
2017-Oct-01 07:00N 37°57' E 023°39'0 0.0
2017-Oct-01 06:30N 37°57' E 023°39'0 0.0
2017-Oct-01 06:00N 37°57' E 023°39'0 0.0
2017-Oct-01 05:30N 37°57' E 023°39'0 0.0
2017-Oct-01 05:00N 37°57' E 023°39'0 0.0
2017-Oct-01 04:30N 37°57' E 023°39'0 0.0
2017-Oct-01 04:00N 37°57' E 023°39'0 0.0
2017-Oct-01 03:30N 37°57' E 023°39'0 0.0
2017-Oct-01 03:00N 37°57' E 023°39'0 0.0
2017-Sep-30 02:00N 37°57' E 023°39'0 0.0
2017-Sep-30 01:30N 37°57' E 023°39'0 0.0
2017-Sep-30 01:00N 37°57' E 023°39'0 0.0
2017-Sep-30 00:30N 37°57' E 023°39'0 0.0
2017-Sep-30 00:00N 37°57' E 023°39'0 0.0
2017-Sep-29 23:30N 37°57' E 023°39'0 0.0
2017-Sep-29 23:00N 37°57' E 023°39'0 0.0
2017-Sep-29 22:30N 37°57' E 023°39'0 0.0
2017-Sep-29 22:00N 37°57' E 023°39'0 0.0
2017-Sep-29 21:30N 37°57' E 023°39'0 0.0
2017-Sep-29 21:00N 37°57' E 023°39'0 0.0
2017-Sep-29 20:30N 37°57' E 023°39'0 0.0
2017-Sep-29 20:00N 37°57' E 023°39'0 0.2
2017-Sep-29 19:30N 37°57' E 023°38'1529.1
2017-Sep-29 19:01N 37°42' E 023°35'3 0.7
2017-Sep-29 15:03N 37°42' E 023°32'234.6
2017-Sep-29 15:00N 37°44' E 023°33'1428.3
2017-Sep-29 14:30N 37°57' E 023°39'0 0.1
2017-Sep-29 14:00N 37°57' E 023°39'1325.3
2017-Sep-29 13:31N 37°44' E 023°35'2 0.6
2017-Sep-29 10:31N 37°42' E 023°35'036.4
2017-Sep-29 10:30N 37°43' E 023°35'1428.3
2017-Sep-29 10:00N 37°57' E 023°39'0 0.0
2017-Sep-29 09:30N 37°57' E 023°39'0 0.0
2017-Sep-29 09:00N 37°57' E 023°39'0 0.0
2017-Sep-29 08:31N 37°57' E 023°39'0 0.0
2017-Sep-29 08:00N 37°57' E 023°39'0 0.0
2017-Sep-29 07:30N 37°57' E 023°39'0 0.0
2017-Sep-29 07:00N 37°57' E 023°39'0 0.0
2017-Sep-29 06:31N 37°57' E 023°39'0 0.0
2017-Sep-29 06:00N 37°57' E 023°39'0 0.0
2017-Sep-29 05:31N 37°57' E 023°39'0 0.0
2017-Sep-29 05:00N 37°57' E 023°39'0 0.0
2017-Sep-29 04:30N 37°57' E 023°39'0 0.0
2017-Sep-29 04:00N 37°57' E 023°39'0 0.0
2017-Sep-29 03:31N 37°57' E 023°39'0 0.0
2017-Sep-29 03:00N 37°57' E 023°39'0 0.0
2017-Sep-29 02:30N 37°57' E 023°39'0 0.0
2017-Sep-29 02:01N 37°57' E 023°39'0 0.0
2017-Sep-29 01:30N 37°57' E 023°39'0 0.0
2017-Sep-29 01:01N 37°57' E 023°39'0 0.0
2017-Sep-29 00:31N 37°57' E 023°39'0 0.0
2017-Sep-29 00:01N 37°57' E 023°39'0 0.0
2017-Sep-28 23:31N 37°57' E 023°39'0 0.0
2017-Sep-28 22:05N 37°57' E 023°39'0 0.0
2017-Sep-28 22:01N 37°57' E 023°39'0 0.0
2017-Sep-28 21:30N 37°57' E 023°39'0 0.0
2017-Sep-28 21:01N 37°57' E 023°39'0 0.0
2017-Sep-28 20:31N 37°57' E 023°39'0 0.0
2017-Sep-28 20:01N 37°57' E 023°39'0 0.0
2017-Sep-28 19:31N 37°57' E 023°39'0 0.0
2017-Sep-28 19:00N 37°57' E 023°39'0 0.0
2017-Sep-28 18:31N 37°57' E 023°39'0 0.0
2017-Sep-28 18:01N 37°57' E 023°39'0 0.0
2017-Sep-28 17:31N 37°57' E 023°39'0 0.0
2017-Sep-28 17:01N 37°57' E 023°39'0 0.0
2017-Sep-28 16:31N 37°57' E 023°39'0 0.0
2017-Sep-28 16:01N 37°57' E 023°39'0 0.0
2017-Sep-28 15:30N 37°57' E 023°39'0 0.0
2017-Sep-28 15:01N 37°57' E 023°39'917.8
2017-Sep-28 14:31N 37°48' E 023°35'4 1.1
2017-Sep-28 10:58N 37°44' E 023°34'1328.1
2017-Sep-28 10:30N 37°57' E 023°39'1 1.1
2017-Sep-28 10:01N 37°56' E 023°38'2032.0
2017-Sep-28 09:24N 37°38' E 023°30'7 1.8
2017-Sep-28 05:29N 37°44' E 023°33'1327.0
2017-Sep-28 05:00N 37°57' E 023°39'0 0.0
2017-Sep-28 04:31N 37°57' E 023°39'0 0.0
2017-Sep-28 04:01N 37°57' E 023°39'0 0.0
2017-Sep-28 03:31N 37°57' E 023°39'0 0.0
2017-Sep-28 03:01N 37°57' E 023°39'0 0.0
2017-Sep-28 02:31N 37°57' E 023°39'0 0.0
2017-Sep-28 02:01N 37°57' E 023°39'0 0.0
2017-Sep-28 01:31N 37°57' E 023°39'0 0.0
2017-Sep-28 01:01N 37°57' E 023°39'0 0.0
2017-Sep-28 00:31N 37°57' E 023°39'0 0.0
2017-Sep-28 00:01N 37°57' E 023°39'0 0.0
2017-Sep-27 23:31N 37°57' E 023°39'0 0.0
2017-Sep-27 23:01N 37°57' E 023°39'0 0.0
2017-Sep-27 22:31N 37°57' E 023°39'0 0.0
2017-Sep-27 22:01N 37°57' E 023°39'0 0.0
2017-Sep-27 21:31N 37°57' E 023°39'0 0.0
2017-Sep-27 21:01N 37°57' E 023°39'0 0.0
2017-Sep-27 20:31N 37°57' E 023°39'0 0.0
2017-Sep-27 20:01N 37°57' E 023°39'0 0.0
2017-Sep-27 19:31N 37°57' E 023°39'0 0.0
2017-Sep-27 19:00N 37°57' E 023°39'0 0.0
2017-Sep-27 18:31N 37°57' E 023°39'0 0.0
2017-Sep-27 18:01N 37°57' E 023°39'0 0.0
2017-Sep-27 17:31N 37°57' E 023°39'0 0.0
2017-Sep-27 17:01N 37°57' E 023°39'0 0.0
2017-Sep-27 16:30N 37°57' E 023°39'0 0.0
2017-Sep-27 16:01N 37°57' E 023°39'0 0.0
2017-Sep-27 15:30N 37°57' E 023°39'0 0.0
2017-Sep-27 15:01N 37°57' E 023°39'715.0
2017-Sep-27 14:31N 37°50' E 023°35'6 1.8
2017-Sep-27 11:01N 37°44' E 023°33'034.4
2017-Sep-27 11:00N 37°44' E 023°33'1326.9
2017-Sep-27 10:30N 37°57' E 023°39'0 0.0
2017-Sep-27 10:00N 37°57' E 023°39'0 0.0
2017-Sep-27 09:30N 37°57' E 023°39'0 0.0
2017-Sep-27 09:00N 37°57' E 023°39'0 0.0
2017-Sep-27 08:30N 37°57' E 023°39'0 0.0
2017-Sep-27 08:00N 37°57' E 023°39'0 0.0
2017-Sep-27 07:30N 37°57' E 023°39'0 0.0
2017-Sep-27 07:00N 37°57' E 023°39'0 0.0
2017-Sep-27 06:30N 37°57' E 023°39'0 0.0
2017-Sep-27 06:00N 37°57' E 023°39'0 0.0
2017-Sep-27 05:31N 37°57' E 023°39'0 0.0
2017-Sep-27 05:00N 37°57' E 023°39'0 0.0
2017-Sep-27 04:30N 37°57' E 023°39'0 0.0
2017-Sep-27 04:00N 37°57' E 023°39'0 0.0
2017-Sep-27 03:31N 37°57' E 023°39'0 0.0
2017-Sep-27 03:00N 37°57' E 023°39'0 0.0
2017-Sep-27 02:30N 37°57' E 023°39'0 0.0
2017-Sep-27 02:00N 37°57' E 023°39'0 0.0
2017-Sep-27 01:31N 37°57' E 023°39'0 0.0
2017-Sep-27 01:00N 37°57' E 023°39'0 0.0
2017-Sep-27 00:30N 37°57' E 023°39'0 0.0
2017-Sep-27 00:00N 37°57' E 023°39'0 0.0
2017-Sep-26 23:30N 37°57' E 023°39'0 0.0
2017-Sep-26 23:00N 37°57' E 023°39'0 0.0
2017-Sep-26 22:30N 37°57' E 023°39'0 0.0
2017-Sep-26 22:01N 37°57' E 023°39'0 0.0
2017-Sep-26 21:30N 37°57' E 023°39'0 0.0
2017-Sep-26 21:00N 37°57' E 023°39'0 0.0
2017-Sep-26 20:31N 37°57' E 023°39'0 0.0
2017-Sep-26 20:00N 37°57' E 023°39'0 0.0
2017-Sep-26 19:30N 37°57' E 023°39'0 0.0
2017-Sep-26 19:01N 37°57' E 023°39'0 0.0
2017-Sep-26 18:30N 37°57' E 023°39'0 0.0
2017-Sep-26 18:00N 37°57' E 023°39'0 0.0
2017-Sep-26 17:30N 37°57' E 023°39'0 0.0
2017-Sep-26 17:00N 37°57' E 023°39'0 0.0
2017-Sep-26 16:30N 37°57' E 023°39'0 0.0
2017-Sep-26 16:00N 37°57' E 023°39'0 0.0
2017-Sep-26 15:30N 37°57' E 023°39'0 0.0
2017-Sep-26 15:01N 37°57' E 023°39'816.3
2017-Sep-26 14:31N 37°49' E 023°35'5 1.3
2017-Sep-26 10:58N 37°44' E 023°34'1327.4
2017-Sep-26 10:30N 37°57' E 023°39'0 0.1
2017-Sep-26 10:00N 37°57' E 023°39'0 0.0
2017-Sep-26 09:30N 37°57' E 023°39'0 0.0
2017-Sep-26 09:00N 37°57' E 023°39'0 0.0
2017-Sep-26 08:30N 37°57' E 023°39'0 0.0
2017-Sep-26 08:00N 37°57' E 023°39'0 0.0
2017-Sep-26 07:30N 37°57' E 023°39'0 0.0
2017-Sep-26 07:00N 37°57' E 023°39'0 0.0
2017-Sep-26 06:30N 37°57' E 023°39'0 0.0
2017-Sep-26 06:00N 37°57' E 023°39'0 0.0
2017-Sep-26 05:30N 37°57' E 023°39'0 0.0
2017-Sep-26 05:00N 37°57' E 023°39'0 0.0
2017-Sep-26 04:30N 37°57' E 023°39'0 0.0
2017-Sep-26 04:00N 37°57' E 023°39'0 0.0
2017-Sep-26 03:30N 37°57' E 023°39'0 0.0
2017-Sep-26 03:00N 37°57' E 023°39'0 0.0
2017-Sep-26 02:30N 37°57' E 023°39'0 0.0
2017-Sep-26 02:00N 37°57' E 023°39'0 0.0
2017-Sep-26 01:30N 37°57' E 023°39'0 0.0
2017-Sep-26 01:00N 37°57' E 023°39'0 0.0
2017-Sep-26 00:30N 37°57' E 023°39'0 0.0
2017-Sep-26 00:00N 37°57' E 023°39'0 0.0
2017-Sep-25 23:30N 37°57' E 023°39'0 0.0
2017-Sep-25 23:00N 37°57' E 023°39'0 0.0
2017-Sep-25 22:30N 37°57' E 023°39'0 0.0
2017-Sep-25 22:00N 37°57' E 023°39'0 0.0
2017-Sep-25 21:30N 37°57' E 023°39'0 0.0
2017-Sep-25 21:00N 37°57' E 023°39'0 0.0
2017-Sep-25 20:30N 37°57' E 023°39'0 0.0
2017-Sep-25 20:00N 37°57' E 023°39'0 0.0
2017-Sep-25 19:30N 37°57' E 023°39'0 0.0
2017-Sep-25 19:00N 37°57' E 023°39'0 0.0
2017-Sep-25 18:30N 37°57' E 023°39'0 0.0
2017-Sep-25 18:00N 37°57' E 023°39'0 0.0
2017-Sep-25 17:30N 37°57' E 023°39'0 0.0
2017-Sep-25 17:00N 37°57' E 023°39'0 0.0
2017-Sep-25 16:30N 37°57' E 023°39'0 0.0
2017-Sep-25 16:00N 37°57' E 023°39'0 0.0
2017-Sep-25 15:30N 37°57' E 023°39'0 0.0
2017-Sep-25 15:00N 37°57' E 023°39'714.7
2017-Sep-25 14:31N 37°50' E 023°35'7 2.1
2017-Sep-25 11:01N 37°43' E 023°33'135.6
2017-Sep-25 11:00N 37°43' E 023°33'1427.9
2017-Sep-25 10:30N 37°57' E 023°39'0 0.9
2017-Sep-25 10:01N 37°56' E 023°38'1632.0
2017-Sep-25 09:30N 37°41' E 023°32'2 0.6
2017-Sep-25 05:31N 37°43' E 023°33'135.0
2017-Sep-25 05:30N 37°44' E 023°34'1327.0
2017-Sep-25 05:00N 37°57' E 023°39'0 0.0
2017-Sep-25 04:30N 37°57' E 023°39'0 0.0
2017-Sep-25 04:00N 37°57' E 023°39'0 0.0
2017-Sep-25 03:30N 37°57' E 023°39'0 0.0
2017-Sep-25 03:00N 37°57' E 023°39'0 0.0
2017-Sep-25 02:30N 37°57' E 023°39'0 0.0
2017-Sep-25 02:00N 37°57' E 023°39'0 0.0
2017-Sep-25 01:30N 37°57' E 023°39'0 0.0
2017-Sep-25 01:00N 37°57' E 023°39'0 0.0
2017-Sep-25 00:30N 37°57' E 023°39'0 0.0
2017-Sep-25 00:00N 37°57' E 023°39'0 0.0
2017-Sep-24 23:30N 37°57' E 023°39'0 0.0
2017-Sep-24 23:00N 37°57' E 023°39'0 0.0
2017-Sep-24 22:30N 37°57' E 023°39'0 0.0
2017-Sep-24 22:00N 37°57' E 023°39'0 0.0
2017-Sep-24 21:30N 37°57' E 023°39'0 0.0
2017-Sep-24 21:00N 37°57' E 023°39'0 0.0
2017-Sep-24 20:30N 37°57' E 023°39'0 0.0
2017-Sep-24 20:00N 37°57' E 023°39'0 0.0
2017-Sep-24 19:30N 37°57' E 023°39'0 0.0
2017-Sep-24 19:00N 37°57' E 023°39'2 4.5
2017-Sep-24 18:31N 37°55' E 023°36'12 3.2
2017-Sep-24 14:50N 37°43' E 023°33'1235.3
2017-Sep-24 14:31N 37°55' E 023°37'2 4.5
2017-Sep-24 14:01N 37°57' E 023°39'714.1
2017-Sep-24 13:31N 37°50' E 023°35'6 1.6
2017-Sep-24 09:31N 37°44' E 023°34'135.2
2017-Sep-24 09:30N 37°45' E 023°34'1325.2
2017-Sep-24 09:00N 37°57' E 023°39'0 0.0
2017-Sep-24 08:30N 37°57' E 023°39'0 0.0
2017-Sep-24 08:00N 37°57' E 023°39'0 0.0
2017-Sep-24 07:31N 37°57' E 023°39'0 0.0
2017-Sep-24 07:01N 37°57' E 023°39'0 0.0
2017-Sep-24 06:30N 37°57' E 023°39'0 0.0
2017-Sep-24 06:00N 37°57' E 023°39'0 0.0
2017-Sep-24 05:30N 37°57' E 023°39'0 0.0
2017-Sep-24 05:00N 37°57' E 023°39'0 0.0
2017-Sep-24 04:30N 37°57' E 023°39'0 0.0
2017-Sep-24 04:00N 37°57' E 023°39'0 0.0
2017-Sep-24 03:31N 37°57' E 023°39'0 0.0
2017-Sep-24 03:00N 37°57' E 023°39'0 0.0
2017-Sep-24 02:30N 37°57' E 023°39'0 0.0
2017-Sep-24 02:01N 37°57' E 023°39'0 0.0
2017-Sep-24 01:30N 37°57' E 023°39'0 0.0
2017-Sep-24 01:00N 37°57' E 023°39'0 0.0
2017-Sep-24 00:31N 37°57' E 023°39'0 0.0
2017-Sep-24 00:00N 37°57' E 023°39'0 0.0
2017-Sep-23 23:30N 37°57' E 023°39'0 0.0
2017-Sep-23 23:00N 37°57' E 023°39'0 0.0
2017-Sep-23 22:31N 37°57' E 023°39'0 0.0
2017-Sep-23 22:00N 37°57' E 023°39'0 0.0
2017-Sep-23 21:31N 37°57' E 023°39'0 0.0
2017-Sep-23 21:00N 37°57' E 023°39'0 0.0
2017-Sep-23 20:30N 37°57' E 023°39'0 0.0
2017-Sep-23 20:01N 37°57' E 023°39'  
Track history (hours):
 
Tides and Currents Weather Stations Pressure Air Temp Water Temp Dewpoint Dewpoint Depression Visibility Wind Speed Wind Dir Waves Ship Positions

Flying Cat 3

Last reported at 2017-Oct-03 06:20 UTC. Time now 2017-Nov-18 23:41 UTC.
Position N 37°57' E 023°38'.
Warning: this ship's position is 46 days out of date.

Length 48 m; draft 1.5 m.

Type: High speed craft. MMSI: 239552000.

Date/timePositionNaut miles runAvg speedWind from/ knotsBaromVisibWave heightAir tempDewpointWater temp
2017-Oct-03 06:20N 37°57' E 023°38'0 0.0
2017-Oct-03 06:00N 37°57' E 023°38'0 0.0
2017-Oct-03 05:30N 37°57' E 023°38'0 0.0
2017-Oct-02 13:16N 37°57' E 023°38'0 0.0
2017-Oct-02 13:00N 37°57' E 023°38'0 0.0
2017-Oct-02 12:30N 37°57' E 023°38'0 0.0
2017-Oct-02 12:00N 37°57' E 023°38'0 0.0
2017-Oct-02 11:30N 37°57' E 023°38'0 0.0
2017-Oct-02 11:00N 37°57' E 023°38'0 0.0
2017-Oct-02 10:30N 37°57' E 023°38'0 0.0
2017-Oct-02 10:00N 37°57' E 023°38'0 0.0
2017-Oct-02 09:30N 37°57' E 023°38'0 0.4
2017-Oct-02 09:00N 37°57' E 023°39'0 0.0
2017-Oct-02 08:30N 37°57' E 023°39'0 0.0
2017-Oct-02 08:00N 37°57' E 023°39'0 0.0
2017-Oct-02 07:30N 37°57' E 023°39'0 0.0
2017-Oct-02 07:00N 37°57' E 023°39'0 0.0
2017-Oct-02 06:30N 37°57' E 023°39'0 0.0
2017-Oct-02 06:00N 37°57' E 023°39'0 0.0
2017-Oct-02 05:30N 37°57' E 023°39'0 0.0
2017-Oct-02 05:00N 37°57' E 023°39'0 0.0
2017-Oct-02 04:30N 37°57' E 023°39'0 0.0
2017-Oct-02 04:00N 37°57' E 023°39'0 0.0
2017-Oct-02 03:30N 37°57' E 023°39'0 0.0
2017-Oct-02 03:00N 37°57' E 023°39'0 0.0
2017-Oct-02 02:30N 37°57' E 023°39'0 0.0
2017-Oct-02 02:00N 37°57' E 023°39'0 0.0
2017-Oct-02 01:30N 37°57' E 023°39'0 0.0
2017-Oct-02 01:00N 37°57' E 023°39'0 0.0
2017-Oct-02 00:30N 37°57' E 023°39'0 0.0
2017-Oct-02 00:00N 37°57' E 023°39'0 0.0
2017-Oct-01 23:30N 37°57' E 023°39'0 0.0
2017-Oct-01 23:00N 37°57' E 023°39'0 0.0
2017-Oct-01 22:30N 37°57' E 023°39'0 0.0
2017-Oct-01 22:00N 37°57' E 023°39'0 0.0
2017-Oct-01 21:30N 37°57' E 023°39'0 0.0
2017-Oct-01 21:00N 37°57' E 023°39'0 0.0
2017-Oct-01 20:30N 37°57' E 023°39'0 0.0
2017-Oct-01 20:00N 37°57' E 023°39'0 0.0
2017-Oct-01 19:30N 37°57' E 023°39'0 0.0
2017-Oct-01 19:00N 37°57' E 023°39'3 6.0
2017-Oct-01 18:30N 37°54' E 023°36'11 3.1
2017-Oct-01 14:50N 37°43' E 023°33'1235.9
2017-Oct-01 14:31N 37°54' E 023°37'3 5.7
2017-Oct-01 14:00N 37°57' E 023°39'714.9
2017-Oct-01 13:31N 37°50' E 023°35'6 1.6
2017-Oct-01 09:30N 37°44' E 023°33'1427.3
2017-Oct-01 09:01N 37°57' E 023°39'0 0.0
2017-Oct-01 08:30N 37°57' E 023°39'0 0.0
2017-Oct-01 08:00N 37°57' E 023°39'0 0.0
2017-Oct-01 07:30N 37°57' E 023°39'0 0.0
2017-Oct-01 07:00N 37°57' E 023°39'0 0.0
2017-Oct-01 06:30N 37°57' E 023°39'0 0.0
2017-Oct-01 06:00N 37°57' E 023°39'0 0.0
2017-Oct-01 05:30N 37°57' E 023°39'0 0.0
2017-Oct-01 05:00N 37°57' E 023°39'0 0.0
2017-Oct-01 04:30N 37°57' E 023°39'0 0.0
2017-Oct-01 04:00N 37°57' E 023°39'0 0.0
2017-Oct-01 03:30N 37°57' E 023°39'0 0.0
2017-Oct-01 03:00N 37°57' E 023°39'0 0.0
2017-Sep-30 02:00N 37°57' E 023°39'0 0.0
2017-Sep-30 01:30N 37°57' E 023°39'0 0.0
2017-Sep-30 01:00N 37°57' E 023°39'0 0.0
2017-Sep-30 00:30N 37°57' E 023°39'0 0.0
2017-Sep-30 00:00N 37°57' E 023°39'0 0.0
2017-Sep-29 23:30N 37°57' E 023°39'0 0.0
2017-Sep-29 23:00N 37°57' E 023°39'0 0.0
2017-Sep-29 22:30N 37°57' E 023°39'0 0.0
2017-Sep-29 22:00N 37°57' E 023°39'0 0.0
2017-Sep-29 21:30N 37°57' E 023°39'0 0.0
2017-Sep-29 21:00N 37°57' E 023°39'0 0.0
2017-Sep-29 20:30N 37°57' E 023°39'0 0.0
2017-Sep-29 20:00N 37°57' E 023°39'0 0.2
2017-Sep-29 19:30N 37°57' E 023°38'1529.1
2017-Sep-29 19:01N 37°42' E 023°35'3 0.7
2017-Sep-29 15:03N 37°42' E 023°32'234.6
2017-Sep-29 15:00N 37°44' E 023°33'1428.3
2017-Sep-29 14:30N 37°57' E 023°39'0 0.1
2017-Sep-29 14:00N 37°57' E 023°39'1325.3
2017-Sep-29 13:31N 37°44' E 023°35'2 0.6
2017-Sep-29 10:31N 37°42' E 023°35'036.4
2017-Sep-29 10:30N 37°43' E 023°35'1428.3
2017-Sep-29 10:00N 37°57' E 023°39'0 0.0
2017-Sep-29 09:30N 37°57' E 023°39'0 0.0
2017-Sep-29 09:00N 37°57' E 023°39'0 0.0
2017-Sep-29 08:31N 37°57' E 023°39'0 0.0
2017-Sep-29 08:00N 37°57' E 023°39'0 0.0
2017-Sep-29 07:30N 37°57' E 023°39'0 0.0
2017-Sep-29 07:00N 37°57' E 023°39'0 0.0
2017-Sep-29 06:31N 37°57' E 023°39'0 0.0
2017-Sep-29 06:00N 37°57' E 023°39'0 0.0
2017-Sep-29 05:31N 37°57' E 023°39'0 0.0
2017-Sep-29 05:00N 37°57' E 023°39'0 0.0
2017-Sep-29 04:30N 37°57' E 023°39'0 0.0
2017-Sep-29 04:00N 37°57' E 023°39'0 0.0
2017-Sep-29 03:31N 37°57' E 023°39'0 0.0
2017-Sep-29 03:00N 37°57' E 023°39'0 0.0
2017-Sep-29 02:30N 37°57' E 023°39'0 0.0
2017-Sep-29 02:01N 37°57' E 023°39'0 0.0
2017-Sep-29 01:30N 37°57' E 023°39'0 0.0
2017-Sep-29 01:01N 37°57' E 023°39'0 0.0
2017-Sep-29 00:31N 37°57' E 023°39'0 0.0
2017-Sep-29 00:01N 37°57' E 023°39'0 0.0
2017-Sep-28 23:31N 37°57' E 023°39'0 0.0
2017-Sep-28 22:05N 37°57' E 023°39'0 0.0
2017-Sep-28 22:01N 37°57' E 023°39'0 0.0
2017-Sep-28 21:30N 37°57' E 023°39'0 0.0
2017-Sep-28 21:01N 37°57' E 023°39'0 0.0
2017-Sep-28 20:31N 37°57' E 023°39'0 0.0
2017-Sep-28 20:01N 37°57' E 023°39'0 0.0
2017-Sep-28 19:31N 37°57' E 023°39'0 0.0
2017-Sep-28 19:00N 37°57' E 023°39'0 0.0
2017-Sep-28 18:31N 37°57' E 023°39'0 0.0
2017-Sep-28 18:01N 37°57' E 023°39'0 0.0
2017-Sep-28 17:31N 37°57' E 023°39'0 0.0
2017-Sep-28 17:01N 37°57' E 023°39'0 0.0
2017-Sep-28 16:31N 37°57' E 023°39'0 0.0
2017-Sep-28 16:01N 37°57' E 023°39'0 0.0
2017-Sep-28 15:30N 37°57' E 023°39'0 0.0
2017-Sep-28 15:01N 37°57' E 023°39'917.8
2017-Sep-28 14:31N 37°48' E 023°35'4 1.1
2017-Sep-28 10:58N 37°44' E 023°34'1328.1
2017-Sep-28 10:30N 37°57' E 023°39'1 1.1
2017-Sep-28 10:01N 37°56' E 023°38'2032.0
2017-Sep-28 09:24N 37°38' E 023°30'7 1.8
2017-Sep-28 05:29N 37°44' E 023°33'1327.0
2017-Sep-28 05:00N 37°57' E 023°39'0 0.0
2017-Sep-28 04:31N 37°57' E 023°39'0 0.0
2017-Sep-28 04:01N 37°57' E 023°39'0 0.0
2017-Sep-28 03:31N 37°57' E 023°39'0 0.0
2017-Sep-28 03:01N 37°57' E 023°39'0 0.0
2017-Sep-28 02:31N 37°57' E 023°39'0 0.0
2017-Sep-28 02:01N 37°57' E 023°39'0 0.0
2017-Sep-28 01:31N 37°57' E 023°39'0 0.0
2017-Sep-28 01:01N 37°57' E 023°39'0 0.0
2017-Sep-28 00:31N 37°57' E 023°39'0 0.0
2017-Sep-28 00:01N 37°57' E 023°39'0 0.0
2017-Sep-27 23:31N 37°57' E 023°39'0 0.0
2017-Sep-27 23:01N 37°57' E 023°39'0 0.0
2017-Sep-27 22:31N 37°57' E 023°39'0 0.0
2017-Sep-27 22:01N 37°57' E 023°39'0 0.0
2017-Sep-27 21:31N 37°57' E 023°39'0 0.0
2017-Sep-27 21:01N 37°57' E 023°39'0 0.0
2017-Sep-27 20:31N 37°57' E 023°39'0 0.0
2017-Sep-27 20:01N 37°57' E 023°39'0 0.0
2017-Sep-27 19:31N 37°57' E 023°39'0 0.0
2017-Sep-27 19:00N 37°57' E 023°39'0 0.0
2017-Sep-27 18:31N 37°57' E 023°39'0 0.0
2017-Sep-27 18:01N 37°57' E 023°39'0 0.0
2017-Sep-27 17:31N 37°57' E 023°39'0 0.0
2017-Sep-27 17:01N 37°57' E 023°39'0 0.0
2017-Sep-27 16:30N 37°57' E 023°39'0 0.0
2017-Sep-27 16:01N 37°57' E 023°39'0 0.0
2017-Sep-27 15:30N 37°57' E 023°39'0 0.0
2017-Sep-27 15:01N 37°57' E 023°39'715.0
2017-Sep-27 14:31N 37°50' E 023°35'6 1.8
2017-Sep-27 11:01N 37°44' E 023°33'034.4
2017-Sep-27 11:00N 37°44' E 023°33'1326.9
2017-Sep-27 10:30N 37°57' E 023°39'0 0.0
2017-Sep-27 10:00N 37°57' E 023°39'0 0.0
2017-Sep-27 09:30N 37°57' E 023°39'0 0.0
2017-Sep-27 09:00N 37°57' E 023°39'0 0.0
2017-Sep-27 08:30N 37°57' E 023°39'0 0.0
2017-Sep-27 08:00N 37°57' E 023°39'0 0.0
2017-Sep-27 07:30N 37°57' E 023°39'0 0.0
2017-Sep-27 07:00N 37°57' E 023°39'0 0.0
2017-Sep-27 06:30N 37°57' E 023°39'0 0.0
2017-Sep-27 06:00N 37°57' E 023°39'0 0.0
2017-Sep-27 05:31N 37°57' E 023°39'0 0.0
2017-Sep-27 05:00N 37°57' E 023°39'0 0.0
2017-Sep-27 04:30N 37°57' E 023°39'0 0.0
2017-Sep-27 04:00N 37°57' E 023°39'0 0.0
2017-Sep-27 03:31N 37°57' E 023°39'0 0.0
2017-Sep-27 03:00N 37°57' E 023°39'0 0.0
2017-Sep-27 02:30N 37°57' E 023°39'0 0.0
2017-Sep-27 02:00N 37°57' E 023°39'0 0.0
2017-Sep-27 01:31N 37°57' E 023°39'0 0.0
2017-Sep-27 01:00N 37°57' E 023°39'0 0.0
2017-Sep-27 00:30N 37°57' E 023°39'0 0.0
2017-Sep-27 00:00N 37°57' E 023°39'0 0.0
2017-Sep-26 23:30N 37°57' E 023°39'0 0.0
2017-Sep-26 23:00N 37°57' E 023°39'0 0.0
2017-Sep-26 22:30N 37°57' E 023°39'0 0.0
2017-Sep-26 22:01N 37°57' E 023°39'0 0.0
2017-Sep-26 21:30N 37°57' E 023°39'0 0.0
2017-Sep-26 21:00N 37°57' E 023°39'0 0.0
2017-Sep-26 20:31N 37°57' E 023°39'0 0.0
2017-Sep-26 20:00N 37°57' E 023°39'0 0.0
2017-Sep-26 19:30N 37°57' E 023°39'0 0.0
2017-Sep-26 19:01N 37°57' E 023°39'0 0.0
2017-Sep-26 18:30N 37°57' E 023°39'0 0.0
2017-Sep-26 18:00N 37°57' E 023°39'0 0.0
2017-Sep-26 17:30N 37°57' E 023°39'0 0.0
2017-Sep-26 17:00N 37°57' E 023°39'0 0.0
2017-Sep-26 16:30N 37°57' E 023°39'0 0.0
2017-Sep-26 16:00N 37°57' E 023°39'0 0.0
2017-Sep-26 15:30N 37°57' E 023°39'0 0.0
2017-Sep-26 15:01N 37°57' E 023°39'816.3
2017-Sep-26 14:31N 37°49' E 023°35'5 1.3
2017-Sep-26 10:58N 37°44' E 023°34'1327.4
2017-Sep-26 10:30N 37°57' E 023°39'0 0.1
2017-Sep-26 10:00N 37°57' E 023°39'0 0.0
2017-Sep-26 09:30N 37°57' E 023°39'0 0.0
2017-Sep-26 09:00N 37°57' E 023°39'0 0.0
2017-Sep-26 08:30N 37°57' E 023°39'0 0.0
2017-Sep-26 08:00N 37°57' E 023°39'0 0.0
2017-Sep-26 07:30N 37°57' E 023°39'0 0.0
2017-Sep-26 07:00N 37°57' E 023°39'0 0.0
2017-Sep-26 06:30N 37°57' E 023°39'0 0.0
2017-Sep-26 06:00N 37°57' E 023°39'0 0.0
2017-Sep-26 05:30N 37°57' E 023°39'0 0.0
2017-Sep-26 05:00N 37°57' E 023°39'0 0.0
2017-Sep-26 04:30N 37°57' E 023°39'0 0.0
2017-Sep-26 04:00N 37°57' E 023°39'0 0.0
2017-Sep-26 03:30N 37°57' E 023°39'0 0.0
2017-Sep-26 03:00N 37°57' E 023°39'0 0.0
2017-Sep-26 02:30N 37°57' E 023°39'0 0.0
2017-Sep-26 02:00N 37°57' E 023°39'0 0.0
2017-Sep-26 01:30N 37°57' E 023°39'0 0.0
2017-Sep-26 01:00N 37°57' E 023°39'0 0.0
2017-Sep-26 00:30N 37°57' E 023°39'0 0.0
2017-Sep-26 00:00N 37°57' E 023°39'0 0.0
2017-Sep-25 23:30N 37°57' E 023°39'0 0.0
2017-Sep-25 23:00N 37°57' E 023°39'0 0.0
2017-Sep-25 22:30N 37°57' E 023°39'0 0.0
2017-Sep-25 22:00N 37°57' E 023°39'0 0.0
2017-Sep-25 21:30N 37°57' E 023°39'0 0.0
2017-Sep-25 21:00N 37°57' E 023°39'0 0.0
2017-Sep-25 20:30N 37°57' E 023°39'0 0.0
2017-Sep-25 20:00N 37°57' E 023°39'0 0.0
2017-Sep-25 19:30N 37°57' E 023°39'0 0.0
2017-Sep-25 19:00N 37°57' E 023°39'0 0.0
2017-Sep-25 18:30N 37°57' E 023°39'0 0.0
2017-Sep-25 18:00N 37°57' E 023°39'0 0.0
2017-Sep-25 17:30N 37°57' E 023°39'0 0.0
2017-Sep-25 17:00N 37°57' E 023°39'0 0.0
2017-Sep-25 16:30N 37°57' E 023°39'0 0.0
2017-Sep-25 16:00N 37°57' E 023°39'0 0.0
2017-Sep-25 15:30N 37°57' E 023°39'0 0.0
2017-Sep-25 15:00N 37°57' E 023°39'714.7
2017-Sep-25 14:31N 37°50' E 023°35'7 2.1
2017-Sep-25 11:01N 37°43' E 023°33'135.6
2017-Sep-25 11:00N 37°43' E 023°33'1427.9
2017-Sep-25 10:30N 37°57' E 023°39'0 0.9
2017-Sep-25 10:01N 37°56' E 023°38'1632.0
2017-Sep-25 09:30N 37°41' E 023°32'2 0.6
2017-Sep-25 05:31N 37°43' E 023°33'135.0
2017-Sep-25 05:30N 37°44' E 023°34'1327.0
2017-Sep-25 05:00N 37°57' E 023°39'0 0.0
2017-Sep-25 04:30N 37°57' E 023°39'0 0.0
2017-Sep-25 04:00N 37°57' E 023°39'0 0.0
2017-Sep-25 03:30N 37°57' E 023°39'0 0.0
2017-Sep-25 03:00N 37°57' E 023°39'0 0.0
2017-Sep-25 02:30N 37°57' E 023°39'0 0.0
2017-Sep-25 02:00N 37°57' E 023°39'0 0.0
2017-Sep-25 01:30N 37°57' E 023°39'0 0.0
2017-Sep-25 01:00N 37°57' E 023°39'0 0.0
2017-Sep-25 00:30N 37°57' E 023°39'0 0.0
2017-Sep-25 00:00N 37°57' E 023°39'0 0.0
2017-Sep-24 23:30N 37°57' E 023°39'0 0.0
2017-Sep-24 23:00N 37°57' E 023°39'0 0.0
2017-Sep-24 22:30N 37°57' E 023°39'0 0.0
2017-Sep-24 22:00N 37°57' E 023°39'0 0.0
2017-Sep-24 21:30N 37°57' E 023°39'0 0.0
2017-Sep-24 21:00N 37°57' E 023°39'0 0.0
2017-Sep-24 20:30N 37°57' E 023°39'0 0.0
2017-Sep-24 20:00N 37°57' E 023°39'0 0.0
2017-Sep-24 19:30N 37°57' E 023°39'0 0.0
2017-Sep-24 19:00N 37°57' E 023°39'2 4.5
2017-Sep-24 18:31N 37°55' E 023°36'12 3.2
2017-Sep-24 14:50N 37°43' E 023°33'1235.3
2017-Sep-24 14:31N 37°55' E 023°37'2 4.5
2017-Sep-24 14:01N 37°57' E 023°39'714.1
2017-Sep-24 13:31N 37°50' E 023°35'6 1.6
2017-Sep-24 09:31N 37°44' E 023°34'135.2
2017-Sep-24 09:30N 37°45' E 023°34'1325.2
2017-Sep-24 09:00N 37°57' E 023°39'0 0.0
2017-Sep-24 08:30N 37°57' E 023°39'0 0.0
2017-Sep-24 08:00N 37°57' E 023°39'0 0.0
2017-Sep-24 07:31N 37°57' E 023°39'0 0.0
2017-Sep-24 07:01N 37°57' E 023°39'0 0.0
2017-Sep-24 06:30N 37°57' E 023°39'0 0.0
2017-Sep-24 06:00N 37°57' E 023°39'0 0.0
2017-Sep-24 05:30N 37°57' E 023°39'0 0.0
2017-Sep-24 05:00N 37°57' E 023°39'0 0.0
2017-Sep-24 04:30N 37°57' E 023°39'0 0.0
2017-Sep-24 04:00N 37°57' E 023°39'0 0.0
2017-Sep-24 03:31N 37°57' E 023°39'0 0.0
2017-Sep-24 03:00N 37°57' E 023°39'0 0.0
2017-Sep-24 02:30N 37°57' E 023°39'0 0.0
2017-Sep-24 02:01N 37°57' E 023°39'0 0.0
2017-Sep-24 01:30N 37°57' E 023°39'0 0.0
2017-Sep-24 01:00N 37°57' E 023°39'0 0.0
2017-Sep-24 00:31N 37°57' E 023°39'0 0.0
2017-Sep-24 00:00N 37°57' E 023°39'0 0.0
2017-Sep-23 23:30N 37°57' E 023°39'0 0.0
2017-Sep-23 23:00N 37°57' E 023°39'0 0.0
2017-Sep-23 22:31N 37°57' E 023°39'0 0.0
2017-Sep-23 22:00N 37°57' E 023°39'0 0.0
2017-Sep-23 21:31N 37°57' E 023°39'0 0.0
2017-Sep-23 21:00N 37°57' E 023°39'0 0.0
2017-Sep-23 20:30N 37°57' E 023°39'0 0.0
2017-Sep-23 20:01N 37°57' E 023°39'  

Dump ship's entire track history